sensor_id;sensor_type;location;lat;lon;timestamp;pressure;altitude;pressure_sealevel;temperature;humidity
4133;BME280;2080;51.038;7.008;2023-02-16T00:01:52;77835.66;;;-142.53;100.00
4133;BME280;2080;51.038;7.008;2023-02-16T00:04:23;77835.66;;;-142.53;100.00
4133;BME280;2080;51.038;7.008;2023-02-16T00:06:49;77827.88;;;-142.53;100.00
4133;BME280;2080;51.038;7.008;2023-02-16T00:09:17;77839.56;;;-142.53;100.00
4133;BME280;2080;51.038;7.008;2023-02-16T00:11:43;77841.50;;;-142.53;100.00
4133;BME280;2080;51.038;7.008;2023-02-16T00:14:28;77847.31;;;-142.53;100.00
4133;BME280;2080;51.038;7.008;2023-02-16T00:16:57;77858.97;;;-142.53;100.00
4133;BME280;2080;51.038;7.008;2023-02-16T00:19:24;77862.88;;;-142.53;100.00
4133;BME280;2080;51.038;7.008;2023-02-16T00:21:52;77878.41;;;-142.53;100.00
4133;BME280;2080;51.038;7.008;2023-02-16T00:24:21;77890.06;;;-142.53;100.00
4133;BME280;2080;51.038;7.008;2023-02-16T00:26:47;77897.84;;;-142.53;100.00
4133;BME280;2080;51.038;7.008;2023-02-16T00:29:33;77909.50;;;-142.53;100.00
4133;BME280;2080;51.038;7.008;2023-02-16T00:32:01;77913.38;;;-142.53;100.00
4133;BME280;2080;51.038;7.008;2023-02-16T00:34:50;77928.94;;;-142.53;100.00
4133;BME280;2080;51.038;7.008;2023-02-16T00:37:14;77948.38;;;-142.53;100.00
4133;BME280;2080;51.038;7.008;2023-02-16T00:39:41;77948.38;;;-142.53;100.00
4133;BME280;2080;51.038;7.008;2023-02-16T00:42:22;77948.38;;;-142.53;100.00
4133;BME280;2080;51.038;7.008;2023-02-16T00:44:55;77948.38;;;-142.53;100.00
4133;BME280;2080;51.038;7.008;2023-02-16T00:49:48;77977.50;;;-142.53;100.00
4133;BME280;2080;51.038;7.008;2023-02-16T00:55:06;77979.47;;;-142.53;100.00
4133;BME280;2080;51.038;7.008;2023-02-16T00:57:34;77965.84;;;-142.53;100.00
4133;BME280;2080;51.038;7.008;2023-02-16T01:02:37;77948.38;;;-142.53;100.00
4133;BME280;2080;51.038;7.008;2023-02-16T01:05:03;77942.53;;;-142.53;100.00
4133;BME280;2080;51.038;7.008;2023-02-16T01:07:28;77961.97;;;-142.53;100.00
4133;BME280;2080;51.038;7.008;2023-02-16T01:10:12;77950.31;;;-142.53;100.00
4133;BME280;2080;51.038;7.008;2023-02-16T01:12:57;77956.13;;;-142.53;100.00
4133;BME280;2080;51.038;7.008;2023-02-16T01:15:24;77975.56;;;-142.53;100.00
4133;BME280;2080;51.038;7.008;2023-02-16T01:17:52;77963.91;;;-142.53;100.00
4133;BME280;2080;51.038;7.008;2023-02-16T01:20:20;77960.03;;;-142.53;100.00
4133;BME280;2080;51.038;7.008;2023-02-16T01:22:48;77960.03;;;-142.53;100.00
4133;BME280;2080;51.038;7.008;2023-02-16T01:25:16;77975.56;;;-142.53;100.00
4133;BME280;2080;51.038;7.008;2023-02-16T01:27:43;77967.81;;;-142.53;100.00
4133;BME280;2080;51.038;7.008;2023-02-16T01:30:15;77961.97;;;-142.53;100.00
4133;BME280;2080;51.038;7.008;2023-02-16T01:32:43;77967.81;;;-142.53;100.00
4133;BME280;2080;51.038;7.008;2023-02-16T01:35:11;77965.84;;;-142.53;100.00
4133;BME280;2080;51.038;7.008;2023-02-16T01:37:37;77973.63;;;-142.53;100.00
4133;BME280;2080;51.038;7.008;2023-02-16T01:40:03;77979.47;;;-142.53;100.00
4133;BME280;2080;51.038;7.008;2023-02-16T01:45:35;77995.00;;;-142.53;100.00
4133;BME280;2080;51.038;7.008;2023-02-16T01:48:04;77995.00;;;-142.53;100.00
4133;BME280;2080;51.038;7.008;2023-02-16T01:50:48;77995.00;;;-142.53;100.00
4133;BME280;2080;51.038;7.008;2023-02-16T01:53:24;77996.94;;;-142.53;100.00
4133;BME280;2080;51.038;7.008;2023-02-16T01:55:56;77998.91;;;-142.53;100.00
4133;BME280;2080;51.038;7.008;2023-02-16T01:58:32;78002.78;;;-142.53;100.00
4133;BME280;2080;51.038;7.008;2023-02-16T02:03:35;77998.91;;;-142.53;100.00
4133;BME280;2080;51.038;7.008;2023-02-16T02:06:32;77998.91;;;-142.53;100.00
4133;BME280;2080;51.038;7.008;2023-02-16T02:09:09;78006.66;;;-142.53;100.00
4133;BME280;2080;51.038;7.008;2023-02-16T02:14:32;78010.56;;;-142.53;100.00
4133;BME280;2080;51.038;7.008;2023-02-16T02:17:06;78012.50;;;-142.53;100.00
4133;BME280;2080;51.038;7.008;2023-02-16T02:33:42;78053.31;;;-142.53;100.00
4133;BME280;2080;51.038;7.008;2023-02-16T02:44:26;78037.75;;;-142.53;100.00
4133;BME280;2080;51.038;7.008;2023-02-16T02:46:57;78035.81;;;-142.53;100.00
4133;BME280;2080;51.038;7.008;2023-02-16T02:49:23;78018.31;;;-142.53;100.00
4133;BME280;2080;51.038;7.008;2023-02-16T02:51:51;78029.97;;;-142.53;100.00
4133;BME280;2080;51.038;7.008;2023-02-16T02:54:37;78055.25;;;-142.53;100.00
4133;BME280;2080;51.038;7.008;2023-02-16T03:05:54;78057.19;;;-142.53;100.00
4133;BME280;2080;51.038;7.008;2023-02-16T03:08:24;78064.97;;;-142.53;100.00
4133;BME280;2080;51.038;7.008;2023-02-16T03:10:54;78059.13;;;-142.53;100.00
4133;BME280;2080;51.038;7.008;2023-02-16T03:13:50;78049.41;;;-142.53;100.00
4133;BME280;2080;51.038;7.008;2023-02-16T03:16:24;78053.31;;;-142.53;100.00
4133;BME280;2080;51.038;7.008;2023-02-16T03:18:51;78064.97;;;-142.53;100.00
4133;BME280;2080;51.038;7.008;2023-02-16T03:21:36;78072.75;;;-142.53;100.00
4133;BME280;2080;51.038;7.008;2023-02-16T03:24:26;78072.75;;;-142.53;100.00
4133;BME280;2080;51.038;7.008;2023-02-16T03:27:15;78064.97;;;-142.53;100.00
4133;BME280;2080;51.038;7.008;2023-02-16T03:30:03;78057.19;;;-142.53;100.00
4133;BME280;2080;51.038;7.008;2023-02-16T03:32:29;78061.06;;;-142.53;100.00
4133;BME280;2080;51.038;7.008;2023-02-16T03:34:55;78051.34;;;-142.53;100.00
4133;BME280;2080;51.038;7.008;2023-02-16T03:37:21;78033.88;;;-142.53;100.00
4133;BME280;2080;51.038;7.008;2023-02-16T03:39:47;78029.97;;;-142.53;100.00
4133;BME280;2080;51.038;7.008;2023-02-16T03:42:31;78010.56;;;-142.53;100.00
4133;BME280;2080;51.038;7.008;2023-02-16T03:44:56;78010.56;;;-142.53;100.00
4133;BME280;2080;51.038;7.008;2023-02-16T03:47:22;77995.00;;;-142.53;100.00
4133;BME280;2080;51.038;7.008;2023-02-16T03:49:52;77985.28;;;-142.53;100.00
4133;BME280;2080;51.038;7.008;2023-02-16T03:52:17;77989.19;;;-142.53;100.00
4133;BME280;2080;51.038;7.008;2023-02-16T03:54:43;77995.00;;;-142.53;100.00
4133;BME280;2080;51.038;7.008;2023-02-16T03:57:08;77979.47;;;-142.53;100.00
4133;BME280;2080;51.038;7.008;2023-02-16T03:59:37;77979.47;;;-142.53;100.00
4133;BME280;2080;51.038;7.008;2023-02-16T04:02:04;77983.34;;;-142.53;100.00
4133;BME280;2080;51.038;7.008;2023-02-16T04:04:31;77987.22;;;-142.53;100.00
4133;BME280;2080;51.038;7.008;2023-02-16T04:06:59;77979.47;;;-142.53;100.00
4133;BME280;2080;51.038;7.008;2023-02-16T04:09:27;77975.56;;;-142.53;100.00
4133;BME280;2080;51.038;7.008;2023-02-16T04:11:52;77991.13;;;-142.53;100.00
4133;BME280;2080;51.038;7.008;2023-02-16T04:14:38;77993.06;;;-142.53;100.00
4133;BME280;2080;51.038;7.008;2023-02-16T04:17:03;77995.00;;;-142.53;100.00
4133;BME280;2080;51.038;7.008;2023-02-16T04:19:29;77995.00;;;-142.53;100.00
4133;BME280;2080;51.038;7.008;2023-02-16T04:21:54;77983.34;;;-142.53;100.00
4133;BME280;2080;51.038;7.008;2023-02-16T04:24:22;77993.06;;;-142.53;100.00
4133;BME280;2080;51.038;7.008;2023-02-16T04:26:47;77983.34;;;-142.53;100.00
4133;BME280;2080;51.038;7.008;2023-02-16T04:29:15;77979.47;;;-142.53;100.00
4133;BME280;2080;51.038;7.008;2023-02-16T04:31:41;77979.47;;;-142.53;100.00
4133;BME280;2080;51.038;7.008;2023-02-16T04:34:06;77998.91;;;-142.53;100.00
4133;BME280;2080;51.038;7.008;2023-02-16T04:36:31;77995.00;;;-142.53;100.00
4133;BME280;2080;51.038;7.008;2023-02-16T04:38:58;77979.47;;;-142.53;100.00
4133;BME280;2080;51.038;7.008;2023-02-16T04:41:26;77979.47;;;-142.53;100.00
4133;BME280;2080;51.038;7.008;2023-02-16T04:43:54;77975.56;;;-142.53;100.00
4133;BME280;2080;51.038;7.008;2023-02-16T04:46:19;77979.47;;;-142.53;100.00
4133;BME280;2080;51.038;7.008;2023-02-16T04:48:45;77989.19;;;-142.53;100.00
4133;BME280;2080;51.038;7.008;2023-02-16T04:51:13;77987.22;;;-142.53;100.00
4133;BME280;2080;51.038;7.008;2023-02-16T04:53:39;77996.94;;;-142.53;100.00
4133;BME280;2080;51.038;7.008;2023-02-16T04:56:08;78018.31;;;-142.53;100.00
4133;BME280;2080;51.038;7.008;2023-02-16T04:58:34;78014.44;;;-142.53;100.00
4133;BME280;2080;51.038;7.008;2023-02-16T05:01:02;78037.75;;;-142.53;100.00
4133;BME280;2080;51.038;7.008;2023-02-16T05:03:30;78047.47;;;-142.53;100.00
4133;BME280;2080;51.038;7.008;2023-02-16T05:05:55;78061.06;;;-142.53;100.00
4133;BME280;2080;51.038;7.008;2023-02-16T05:08:21;78064.97;;;-142.53;100.00
4133;BME280;2080;51.038;7.008;2023-02-16T05:10:46;78080.50;;;-142.53;100.00
4133;BME280;2080;51.038;7.008;2023-02-16T05:13:31;78080.50;;;-142.53;100.00
4133;BME280;2080;51.038;7.008;2023-02-16T05:16:15;78072.75;;;-142.53;100.00
4133;BME280;2080;51.038;7.008;2023-02-16T05:18:41;78070.78;;;-142.53;100.00
4133;BME280;2080;51.038;7.008;2023-02-16T05:21:08;78057.19;;;-142.53;100.00
4133;BME280;2080;51.038;7.008;2023-02-16T05:23:52;78061.06;;;-142.53;100.00
4133;BME280;2080;51.038;7.008;2023-02-16T05:26:18;78057.19;;;-142.53;100.00
4133;BME280;2080;51.038;7.008;2023-02-16T05:28:43;78053.31;;;-142.53;100.00
4133;BME280;2080;51.038;7.008;2023-02-16T05:31:08;78057.19;;;-142.53;100.00
4133;BME280;2080;51.038;7.008;2023-02-16T05:33:36;78053.31;;;-142.53;100.00
4133;BME280;2080;51.038;7.008;2023-02-16T05:36:02;78033.88;;;-142.53;100.00
4133;BME280;2080;51.038;7.008;2023-02-16T05:38:29;78026.09;;;-142.53;100.00
4133;BME280;2080;51.038;7.008;2023-02-16T05:41:03;78026.09;;;-142.53;100.00
4133;BME280;2080;51.038;7.008;2023-02-16T05:43:28;78057.19;;;-142.53;100.00
4133;BME280;2080;51.038;7.008;2023-02-16T05:45:53;78061.06;;;-142.53;100.00
4133;BME280;2080;51.038;7.008;2023-02-16T05:48:19;78049.41;;;-142.53;100.00
4133;BME280;2080;51.038;7.008;2023-02-16T05:50:44;78045.53;;;-142.53;100.00
4133;BME280;2080;51.038;7.008;2023-02-16T05:53:09;78045.53;;;-142.53;100.00
4133;BME280;2080;51.038;7.008;2023-02-16T05:55:35;78041.66;;;-142.53;100.00
4133;BME280;2080;51.038;7.008;2023-02-16T05:58:03;78037.75;;;-142.53;100.00
4133;BME280;2080;51.038;7.008;2023-02-16T06:00:29;78037.75;;;-142.53;100.00
4133;BME280;2080;51.038;7.008;2023-02-16T06:02:58;78033.88;;;-142.53;100.00
4133;BME280;2080;51.038;7.008;2023-02-16T06:05:24;78029.97;;;-142.53;100.00
4133;BME280;2080;51.038;7.008;2023-02-16T06:07:52;78010.56;;;-142.53;100.00
4133;BME280;2080;51.038;7.008;2023-02-16T06:10:19;78004.72;;;-142.53;100.00
4133;BME280;2080;51.038;7.008;2023-02-16T06:12:45;77996.94;;;-142.53;100.00
4133;BME280;2080;51.038;7.008;2023-02-16T06:15:12;77995.00;;;-142.53;100.00
4133;BME280;2080;51.038;7.008;2023-02-16T06:17:38;77975.56;;;-142.53;100.00
4133;BME280;2080;51.038;7.008;2023-02-16T06:20:04;77969.75;;;-142.53;100.00
4133;BME280;2080;51.038;7.008;2023-02-16T06:22:29;77954.19;;;-142.53;100.00
4133;BME280;2080;51.038;7.008;2023-02-16T06:24:55;77944.47;;;-142.53;100.00
4133;BME280;2080;51.038;7.008;2023-02-16T06:27:20;77932.81;;;-142.53;100.00
4133;BME280;2080;51.038;7.008;2023-02-16T06:29:53;77923.09;;;-142.53;100.00
4133;BME280;2080;51.038;7.008;2023-02-16T06:32:23;77923.09;;;-142.53;100.00
4133;BME280;2080;51.038;7.008;2023-02-16T06:34:48;77901.72;;;-142.53;100.00
4133;BME280;2080;51.038;7.008;2023-02-16T06:37:13;77913.38;;;-142.53;100.00
4133;BME280;2080;51.038;7.008;2023-02-16T06:39:41;77886.19;;;-142.53;100.00
4133;BME280;2080;51.038;7.008;2023-02-16T06:42:06;77882.31;;;-142.53;100.00
4133;BME280;2080;51.038;7.008;2023-02-16T06:44:34;77884.25;;;-142.53;100.00
4133;BME280;2080;51.038;7.008;2023-02-16T06:46:59;77874.53;;;-142.53;100.00
4133;BME280;2080;51.038;7.008;2023-02-16T06:49:27;77870.63;;;-142.53;100.00
4133;BME280;2080;51.038;7.008;2023-02-16T06:51:54;77851.22;;;-142.53;100.00
4133;BME280;2080;51.038;7.008;2023-02-16T06:54:19;77839.56;;;-142.53;100.00
4133;BME280;2080;51.038;7.008;2023-02-16T06:56:47;77808.47;;;-142.53;100.00
4133;BME280;2080;51.038;7.008;2023-02-16T06:59:17;77792.91;;;-142.53;100.00
4133;BME280;2080;51.038;7.008;2023-02-16T07:01:43;77781.25;;;-142.53;100.00
4133;BME280;2080;51.038;7.008;2023-02-16T07:04:08;77769.59;;;-142.53;100.00
4133;BME280;2080;51.038;7.008;2023-02-16T07:06:35;77750.16;;;-142.53;100.00
4133;BME280;2080;51.038;7.008;2023-02-16T07:09:00;77744.34;;;-142.53;100.00
4133;BME280;2080;51.038;7.008;2023-02-16T07:11:26;77719.09;;;-142.53;100.00
4133;BME280;2080;51.038;7.008;2023-02-16T07:13:51;77719.09;;;-142.53;100.00
4133;BME280;2080;51.038;7.008;2023-02-16T07:16:17;77705.47;;;-142.53;100.00
4133;BME280;2080;51.038;7.008;2023-02-16T07:18:42;77701.59;;;-142.53;100.00
4133;BME280;2080;51.038;7.008;2023-02-16T07:21:08;77699.66;;;-142.53;100.00
4133;BME280;2080;51.038;7.008;2023-02-16T07:23:33;77672.44;;;-142.53;100.00
4133;BME280;2080;51.038;7.008;2023-02-16T07:25:59;77647.19;;;-142.53;100.00
4133;BME280;2080;51.038;7.008;2023-02-16T07:28:29;77633.59;;;-142.53;100.00
4133;BME280;2080;51.038;7.008;2023-02-16T07:30:54;77619.97;;;-142.53;100.00
4133;BME280;2080;51.038;7.008;2023-02-16T07:33:19;77629.69;;;-142.53;100.00
4133;BME280;2080;51.038;7.008;2023-02-16T07:35:45;77621.94;;;-142.53;100.00
4133;BME280;2080;51.038;7.008;2023-02-16T07:38:10;77606.38;;;-142.53;100.00
4133;BME280;2080;51.038;7.008;2023-02-16T07:40:36;77641.34;;;-142.53;100.00
4133;BME280;2080;51.038;7.008;2023-02-16T07:43:05;77631.63;;;-142.53;100.00
4133;BME280;2080;51.038;7.008;2023-02-16T07:45:32;77647.19;;;-142.53;100.00
4133;BME280;2080;51.038;7.008;2023-02-16T07:47:59;77629.69;;;-142.53;100.00
4133;BME280;2080;51.038;7.008;2023-02-16T07:50:27;77606.38;;;-142.53;100.00
4133;BME280;2080;51.038;7.008;2023-02-16T07:52:52;77606.38;;;-142.53;100.00
4133;BME280;2080;51.038;7.008;2023-02-16T07:55:18;77592.78;;;-142.53;100.00
4133;BME280;2080;51.038;7.008;2023-02-16T07:57:46;77586.94;;;-142.53;100.00
4133;BME280;2080;51.038;7.008;2023-02-16T08:00:14;77559.75;;;-142.53;100.00
4133;BME280;2080;51.038;7.008;2023-02-16T08:02:39;77548.09;;;-142.53;99.07
4133;BME280;2080;51.038;7.008;2023-02-16T08:05:05;77546.16;;;-142.53;99.88
4133;BME280;2080;51.038;7.008;2023-02-16T08:07:32;77528.66;;;-142.53;99.47
4133;BME280;2080;51.038;7.008;2023-02-16T08:09:58;77501.47;;;-142.53;98.47
4133;BME280;2080;51.038;7.008;2023-02-16T08:12:25;77480.09;;;-142.53;97.58
4133;BME280;2080;51.038;7.008;2023-02-16T08:14:50;77478.16;;;-142.53;96.11
4133;BME280;2080;51.038;7.008;2023-02-16T08:17:15;77485.91;;;-142.53;96.19
4133;BME280;2080;51.038;7.008;2023-02-16T08:19:43;77485.91;;;-142.53;95.70
4133;BME280;2080;51.038;7.008;2023-02-16T08:22:08;77478.16;;;-142.53;95.45
4133;BME280;2080;51.038;7.008;2023-02-16T08:24:34;77466.50;;;-142.53;94.59
4133;BME280;2080;51.038;7.008;2023-02-16T08:27:02;77450.94;;;-142.53;94.03
4133;BME280;2080;51.038;7.008;2023-02-16T08:29:34;77439.28;;;-142.53;93.71
4133;BME280;2080;51.038;7.008;2023-02-16T08:32:00;77450.94;;;-142.53;93.71
4133;BME280;2080;51.038;7.008;2023-02-16T08:34:30;77449.00;;;-142.53;94.20
4133;BME280;2080;51.038;7.008;2023-02-16T08:36:57;77419.84;;;-142.53;93.21
4133;BME280;2080;51.038;7.008;2023-02-16T08:39:26;77421.81;;;-142.53;93.58
4133;BME280;2080;51.038;7.008;2023-02-16T08:41:53;77404.31;;;-142.53;92.62
4133;BME280;2080;51.038;7.008;2023-02-16T08:44:20;77423.75;;;-142.53;93.46
4133;BME280;2080;51.038;7.008;2023-02-16T08:46:50;77423.75;;;-142.53;92.97
4133;BME280;2080;51.038;7.008;2023-02-16T08:49:17;77437.34;;;-142.53;93.86
4133;BME280;2080;51.038;7.008;2023-02-16T08:51:50;77425.69;;;-142.53;92.54
4133;BME280;2080;51.038;7.008;2023-02-16T08:54:23;77435.41;;;-142.53;93.78
4133;BME280;2080;51.038;7.008;2023-02-16T08:56:51;77435.41;;;-142.53;93.34
4133;BME280;2080;51.038;7.008;2023-02-16T08:59:19;77427.63;;;-142.53;93.05
4133;BME280;2080;51.038;7.008;2023-02-16T09:01:45;77414.03;;;-142.53;93.01
4133;BME280;2080;51.038;7.008;2023-02-16T09:04:13;77414.03;;;-142.53;92.05
4133;BME280;2080;51.038;7.008;2023-02-16T09:06:41;77404.31;;;-142.53;91.38
4133;BME280;2080;51.038;7.008;2023-02-16T09:09:08;77427.63;;;-142.53;92.18
4133;BME280;2080;51.038;7.008;2023-02-16T09:11:35;77443.16;;;-142.53;92.72
4133;BME280;2080;51.038;7.008;2023-02-16T09:14:03;77435.41;;;-142.53;92.42
4133;BME280;2080;51.038;7.008;2023-02-16T09:16:31;77441.22;;;-142.53;92.81
4133;BME280;2080;51.038;7.008;2023-02-16T09:19:00;77417.91;;;-142.53;92.48
4133;BME280;2080;51.038;7.008;2023-02-16T09:21:29;77423.75;;;-142.53;91.83
4133;BME280;2080;51.038;7.008;2023-02-16T09:24:01;77415.97;;;-142.53;92.05
4133;BME280;2080;51.038;7.008;2023-02-16T09:26:30;77396.53;;;-142.53;92.00
4133;BME280;2080;51.038;7.008;2023-02-16T09:28:58;77349.91;;;-142.53;90.83
4133;BME280;2080;51.038;7.008;2023-02-16T09:31:28;77307.16;;;-142.53;89.50
4133;BME280;2080;51.038;7.008;2023-02-16T09:34:03;77258.59;;;-142.53;87.11
4133;BME280;2080;51.038;7.008;2023-02-16T09:36:28;77210.03;;;-142.53;86.44
4133;BME280;2080;51.038;7.008;2023-02-16T09:38:54;77163.41;;;-142.53;83.65
4133;BME280;2080;51.038;7.008;2023-02-16T09:46:59;77077.91;;;-142.53;79.03
4133;BME280;2080;51.038;7.008;2023-02-16T09:49:37;77027.41;;;-142.53;76.81
4133;BME280;2080;51.038;7.008;2023-02-16T09:54:54;76974.97;;;-142.53;72.92
4133;BME280;2080;51.038;7.008;2023-02-16T09:57:38;76961.34;;;-142.53;72.37
4133;BME280;2080;51.038;7.008;2023-02-16T10:00:50;76949.69;;;-142.53;72.56
4133;BME280;2080;51.038;7.008;2023-02-16T10:05:47;76914.75;;;-142.53;70.82
4133;BME280;2080;51.038;7.008;2023-02-16T10:11:06;76879.78;;;-142.53;68.04
4133;BME280;2080;51.038;7.008;2023-02-16T10:13:55;76875.88;;;-142.53;66.94
4133;BME280;2080;51.038;7.008;2023-02-16T10:16:29;76860.34;;;-142.53;66.86
4133;BME280;2080;51.038;7.008;2023-02-16T10:19:00;76856.47;;;-142.53;67.92
4133;BME280;2080;51.038;7.008;2023-02-16T10:21:28;76852.56;;;-142.53;68.33
4133;BME280;2080;51.038;7.008;2023-02-16T10:24:00;76852.56;;;-142.53;67.06
4133;BME280;2080;51.038;7.008;2023-02-16T10:26:45;76844.81;;;-142.53;67.64
4133;BME280;2080;51.038;7.008;2023-02-16T10:29:16;76837.03;;;-142.53;67.82
4133;BME280;2080;51.038;7.008;2023-02-16T10:34:19;76860.34;;;-142.53;68.27
4133;BME280;2080;51.038;7.008;2023-02-16T10:39:25;76873.94;;;-142.53;69.78
4133;BME280;2080;51.038;7.008;2023-02-16T10:42:03;76887.53;;;-142.53;71.15
4133;BME280;2080;51.038;7.008;2023-02-16T10:44:37;76872.00;;;-142.53;69.04
4133;BME280;2080;51.038;7.008;2023-02-16T10:47:05;76887.53;;;-142.53;69.97
4133;BME280;2080;51.038;7.008;2023-02-16T10:49:36;76901.13;;;-142.53;70.58
4133;BME280;2080;51.038;7.008;2023-02-16T10:52:05;76936.09;;;-142.53;72.49
4133;BME280;2080;51.038;7.008;2023-02-16T10:54:32;76936.09;;;-142.53;73.79
4133;BME280;2080;51.038;7.008;2023-02-16T10:57:06;76949.69;;;-142.53;74.95
4133;BME280;2080;51.038;7.008;2023-02-16T10:59:40;76965.25;;;-142.53;76.98
4133;BME280;2080;51.038;7.008;2023-02-16T11:02:19;76973.00;;;-142.53;78.01
4133;BME280;2080;51.038;7.008;2023-02-16T11:04:49;76971.06;;;-142.53;78.38
4133;BME280;2080;51.038;7.008;2023-02-16T11:07:27;76961.34;;;-142.53;78.27
4133;BME280;2080;51.038;7.008;2023-02-16T11:09:57;76945.81;;;-142.53;77.61
4133;BME280;2080;51.038;7.008;2023-02-16T11:12:28;76943.88;;;-142.53;77.87
4133;BME280;2080;51.038;7.008;2023-02-16T11:14:59;76936.09;;;-142.53;78.32
4133;BME280;2080;51.038;7.008;2023-02-16T11:17:28;76918.63;;;-142.53;78.16
4133;BME280;2080;51.038;7.008;2023-02-16T11:20:03;76889.47;;;-142.53;77.38
4133;BME280;2080;51.038;7.008;2023-02-16T11:22:39;76848.69;;;-142.53;76.12
4133;BME280;2080;51.038;7.008;2023-02-16T11:25:19;76821.50;;;-142.53;74.85
4133;BME280;2080;51.038;7.008;2023-02-16T11:28:00;76790.41;;;-142.53;73.32
4133;BME280;2080;51.038;7.008;2023-02-16T11:30:37;76734.06;;;-142.53;72.12
4133;BME280;2080;51.038;7.008;2023-02-16T11:33:25;76689.41;;;-142.53;70.44
4133;BME280;2080;51.038;7.008;2023-02-16T11:35:52;76662.19;;;-142.53;68.72
4133;BME280;2080;51.038;7.008;2023-02-16T11:40:53;76611.69;;;-142.53;66.00
4133;BME280;2080;51.038;7.008;2023-02-16T11:43:21;76654.44;;;-142.53;66.42
4133;BME280;2080;51.038;7.008;2023-02-16T11:46:12;76600.03;;;-142.53;64.44
4133;BME280;2080;51.038;7.008;2023-02-16T11:48:39;76607.81;;;-142.53;64.30
4133;BME280;2080;51.038;7.008;2023-02-16T11:51:07;76588.38;;;-142.53;63.97
4133;BME280;2080;51.038;7.008;2023-02-16T11:53:34;76586.44;;;-142.53;65.39
4133;BME280;2080;51.038;7.008;2023-02-16T11:56:26;76576.72;;;-142.53;64.20
4133;BME280;2080;51.038;7.008;2023-02-16T11:59:15;76568.97;;;-142.53;63.42
4133;BME280;2080;51.038;7.008;2023-02-16T12:10:15;76512.63;;;-142.53;63.01
4133;BME280;2080;51.038;7.008;2023-02-16T12:13:00;76514.56;;;-142.53;63.49
4133;BME280;2080;51.038;7.008;2023-02-16T12:15:55;76500.97;;;-142.53;62.96
4133;BME280;2080;51.038;7.008;2023-02-16T12:21:11;76526.22;;;-142.53;63.75
4133;BME280;2080;51.038;7.008;2023-02-16T12:26:43;76559.25;;;-142.53;66.32
4133;BME280;2080;51.038;7.008;2023-02-16T12:43:00;76650.56;;;-142.53;72.10
4133;BME280;2080;51.038;7.008;2023-02-16T12:45:31;76666.09;;;-142.53;73.77
4133;BME280;2080;51.038;7.008;2023-02-16T12:50:44;76669.97;;;-142.53;74.69
4133;BME280;2080;51.038;7.008;2023-02-16T12:53:24;76673.84;;;-142.53;75.57
4133;BME280;2080;51.038;7.008;2023-02-16T12:56:06;76681.63;;;-142.53;76.44
4133;BME280;2080;51.038;7.008;2023-02-16T12:58:42;76697.16;;;-142.53;78.00
4133;BME280;2080;51.038;7.008;2023-02-16T13:01:15;76697.16;;;-142.53;79.01
4133;BME280;2080;51.038;7.008;2023-02-16T13:03:58;76689.41;;;-142.53;79.38
4133;BME280;2080;51.038;7.008;2023-02-16T13:06:32;76664.16;;;-142.53;79.85
4133;BME280;2080;51.038;7.008;2023-02-16T13:14:36;76600.03;;;-142.53;77.75
4133;BME280;2080;51.038;7.008;2023-02-16T13:17:14;76592.28;;;-142.53;76.58
4133;BME280;2080;51.038;7.008;2023-02-16T13:19:43;76580.63;;;-142.53;76.33
4133;BME280;2080;51.038;7.008;2023-02-16T13:27:57;76508.75;;;-142.53;74.93
4133;BME280;2080;51.038;7.008;2023-02-16T13:44:38;76464.06;;;-142.53;74.61
4133;BME280;2080;51.038;7.008;2023-02-16T13:47:11;76421.34;;;-142.53;73.72
4133;BME280;2080;51.038;7.008;2023-02-16T13:49:41;76394.16;;;-142.53;72.37
4133;BME280;2080;51.038;7.008;2023-02-16T13:52:32;76351.41;;;-142.53;70.96
4133;BME280;2080;51.038;7.008;2023-02-16T13:55:02;76320.34;;;-142.53;70.18
4133;BME280;2080;51.038;7.008;2023-02-16T14:05:37;76238.78;;;-142.53;66.77
4133;BME280;2080;51.038;7.008;2023-02-16T14:13:32;76223.22;;;-142.53;64.62
4133;BME280;2080;51.038;7.008;2023-02-16T14:18:57;76211.56;;;-142.53;64.34
4133;BME280;2080;51.038;7.008;2023-02-16T14:21:39;76223.22;;;-142.53;64.60
4133;BME280;2080;51.038;7.008;2023-02-16T14:24:12;76223.22;;;-142.53;64.99
4133;BME280;2080;51.038;7.008;2023-02-16T14:27:04;76209.63;;;-142.53;64.71
4133;BME280;2080;51.038;7.008;2023-02-16T14:29:36;76215.47;;;-142.53;65.62
4133;BME280;2080;51.038;7.008;2023-02-16T14:34:42;76192.16;;;-142.53;63.97
4133;BME280;2080;51.038;7.008;2023-02-16T14:39:40;76199.94;;;-142.53;65.26
4133;BME280;2080;51.038;7.008;2023-02-16T14:42:12;76215.47;;;-142.53;66.30
4133;BME280;2080;51.038;7.008;2023-02-16T14:45:06;76201.88;;;-142.53;67.08
4133;BME280;2080;51.038;7.008;2023-02-16T14:56:48;76225.16;;;-142.53;69.16
4133;BME280;2080;51.038;7.008;2023-02-16T14:59:31;76238.78;;;-142.53;69.87
4133;BME280;2080;51.038;7.008;2023-02-16T15:02:25;76238.78;;;-142.53;70.25
4133;BME280;2080;51.038;7.008;2023-02-16T15:04:50;76262.06;;;-142.53;71.16
4133;BME280;2080;51.038;7.008;2023-02-16T15:07:16;76269.84;;;-142.53;71.69
4133;BME280;2080;51.038;7.008;2023-02-16T15:09:43;76279.56;;;-142.53;71.76
4133;BME280;2080;51.038;7.008;2023-02-16T15:12:13;76300.91;;;-142.53;72.51
4133;BME280;2080;51.038;7.008;2023-02-16T15:17:39;76333.94;;;-142.53;75.35
4133;BME280;2080;51.038;7.008;2023-02-16T15:20:15;76332.00;;;-142.53;75.70
4133;BME280;2080;51.038;7.008;2023-02-16T15:22:56;76343.66;;;-142.53;76.08
4133;BME280;2080;51.038;7.008;2023-02-16T15:25:27;76343.66;;;-142.53;76.52
4133;BME280;2080;51.038;7.008;2023-02-16T15:30:33;76345.59;;;-142.53;77.04
4133;BME280;2080;51.038;7.008;2023-02-16T15:33:03;76343.66;;;-142.53;77.80
4133;BME280;2080;51.038;7.008;2023-02-16T15:35:40;76332.00;;;-142.53;76.96
4133;BME280;2080;51.038;7.008;2023-02-16T15:38:22;76343.66;;;-142.53;77.08
4133;BME280;2080;51.038;7.008;2023-02-16T15:40:55;76355.31;;;-142.53;77.94
4133;BME280;2080;51.038;7.008;2023-02-16T15:45:52;76405.81;;;-142.53;79.73
4133;BME280;2080;51.038;7.008;2023-02-16T15:48:25;76413.56;;;-142.53;80.28
4133;BME280;2080;51.038;7.008;2023-02-16T15:50:59;76417.47;;;-142.53;80.72
4133;BME280;2080;51.038;7.008;2023-02-16T15:53:33;76444.66;;;-142.53;81.60
4133;BME280;2080;51.038;7.008;2023-02-16T15:56:01;76458.25;;;-142.53;82.50
4133;BME280;2080;51.038;7.008;2023-02-16T15:58:26;76458.25;;;-142.53;82.74